createdAt,value
2023-02-23T00:00:23.554Z,0.43
2023-02-23T00:03:14.573Z,0.43
2023-02-23T00:05:50.924Z,0.39
2023-02-23T00:08:23.710Z,0.37
2023-02-23T00:10:58.893Z,0.36
2023-02-23T00:13:37.658Z,0.35
2023-02-23T00:16:13.754Z,0.35
2023-02-23T00:18:51.121Z,0.33
2023-02-23T00:21:29.955Z,0.32
2023-02-23T00:24:05.354Z,0.32
2023-02-23T00:26:40.345Z,0.30
2023-02-23T00:29:17.540Z,0.28
2023-02-23T00:31:51.748Z,0.26
2023-02-23T00:34:24.266Z,0.24
2023-02-23T00:36:57.143Z,0.25
2023-02-23T00:39:37.333Z,0.23
2023-02-23T00:42:10.722Z,0.22
2023-02-23T00:44:43.476Z,0.21
2023-02-23T00:47:15.936Z,0.19
2023-02-23T00:49:48.365Z,0.19
2023-02-23T00:52:20.738Z,0.17
2023-02-23T00:54:53.988Z,0.17
2023-02-23T00:57:29.632Z,0.17
2023-02-23T01:00:02.049Z,0.14
2023-02-23T01:02:34.507Z,0.13
2023-02-23T01:05:07.426Z,0.14
2023-02-23T01:07:40.174Z,0.12
2023-02-23T01:10:20.336Z,0.10
2023-02-23T01:12:54.696Z,0.09
2023-02-23T01:15:29.259Z,0.07
2023-02-23T01:18:01.822Z,0.03
2023-02-23T01:20:36.369Z,0.02
2023-02-23T01:23:09.152Z,0.00
2023-02-23T01:25:42.910Z,-0.02
2023-02-23T01:28:15.710Z,-0.02
2023-02-23T01:30:49.316Z,-0.05
2023-02-23T01:33:21.893Z,-0.05
2023-02-23T01:36:01.862Z,-0.06
2023-02-23T01:38:34.196Z,-0.06
2023-02-23T01:41:10.638Z,-0.07
2023-02-23T01:43:58.493Z,-0.08
2023-02-23T01:46:32.379Z,-0.08
2023-02-23T01:49:07.237Z,-0.08
2023-02-23T01:51:48.697Z,-0.12
2023-02-23T01:54:29.163Z,-0.12
2023-02-23T01:57:05.096Z,-0.14
2023-02-23T01:59:41.201Z,-0.17
2023-02-23T02:02:14.340Z,-0.18
2023-02-23T02:04:49.088Z,-0.19
2023-02-23T02:07:24.104Z,-0.20
2023-02-23T02:10:27.535Z,-0.20
2023-02-23T02:13:01.101Z,-0.22
2023-02-23T02:15:38.907Z,-0.24
2023-02-23T02:18:23.736Z,-0.26
2023-02-23T02:21:25.364Z,-0.28
2023-02-23T02:24:30.421Z,-0.32
2023-02-23T02:27:22.426Z,-0.33
2023-02-23T02:30:28.241Z,-0.34
2023-02-23T02:33:33.297Z,-0.35
2023-02-23T02:36:59.465Z,-0.36
2023-02-23T02:39:40.361Z,-0.35
2023-02-23T02:42:25.686Z,-0.35
2023-02-23T02:45:10.967Z,-0.37
2023-02-23T02:47:46.570Z,-0.39
2023-02-23T02:50:31.639Z,-0.39
2023-02-23T02:53:10.268Z,-0.40
2023-02-23T02:55:45.359Z,-0.40
2023-02-23T02:58:20.590Z,-0.39
2023-02-23T03:01:11.794Z,-0.42
2023-02-23T03:04:08.057Z,-0.40
2023-02-23T03:07:05.216Z,-0.41
2023-02-23T03:10:06.499Z,-0.41
2023-02-23T03:13:04.705Z,-0.43
2023-02-23T03:16:10.005Z,-0.42
2023-02-23T03:19:17.997Z,-0.43
2023-02-23T03:22:14.349Z,-0.44
2023-02-23T03:25:11.365Z,-0.44
2023-02-23T03:28:11.516Z,-0.46
2023-02-23T03:31:10.904Z,-0.46
2023-02-23T03:34:09.594Z,-0.45
2023-02-23T03:37:07.097Z,-0.46
2023-02-23T03:40:06.473Z,-0.48
2023-02-23T03:42:58.486Z,-0.50
2023-02-23T03:45:51.530Z,-0.52
2023-02-23T03:48:44.308Z,-0.53
2023-02-23T03:51:37.152Z,-0.53
2023-02-23T03:54:32.921Z,-0.54
2023-02-23T03:57:29.289Z,-0.55
2023-02-23T04:00:22.607Z,-0.55
2023-02-23T04:03:16.876Z,-0.53
2023-02-23T04:06:09.847Z,-0.53
2023-02-23T04:09:00.359Z,-0.56
2023-02-23T04:11:54.754Z,-0.56
2023-02-23T04:14:34.247Z,-0.59
2023-02-23T04:17:09.316Z,-0.60
2023-02-23T04:19:49.951Z,-0.59
2023-02-23T04:22:22.845Z,-0.58
2023-02-23T04:24:55.426Z,-0.59
2023-02-23T04:27:29.400Z,-0.60
2023-02-23T04:30:03.801Z,-0.57
2023-02-23T04:35:50.781Z,-0.51
2023-02-23T04:38:23.257Z,-0.53
2023-02-23T04:40:55.513Z,-0.53
2023-02-23T04:43:27.666Z,-0.56
2023-02-23T04:45:59.958Z,-0.59
2023-02-23T04:48:32.383Z,-0.62
2023-02-23T04:51:04.666Z,-0.64
2023-02-23T04:53:37.014Z,-0.62
2023-02-23T04:56:10.086Z,-0.64
2023-02-23T04:58:42.300Z,-0.65
2023-02-23T05:01:14.574Z,-0.65
2023-02-23T05:03:46.845Z,-0.67
2023-02-23T05:06:19.746Z,-0.68
2023-02-23T05:08:52.034Z,-0.67
2023-02-23T05:11:25.157Z,-0.67
2023-02-23T05:13:57.587Z,-0.69
2023-02-23T05:16:29.834Z,-0.70
2023-02-23T05:19:02.208Z,-0.70
2023-02-23T05:21:34.498Z,-0.71
2023-02-23T05:24:07.418Z,-0.73
2023-02-23T05:26:40.002Z,-0.74
2023-02-23T05:29:12.413Z,-0.75
2023-02-23T05:31:44.824Z,-0.75
2023-02-23T05:34:19.039Z,-0.75
2023-02-23T05:36:51.349Z,-0.76
2023-02-23T05:39:23.560Z,-0.77
2023-02-23T05:41:56.184Z,-0.75
2023-02-23T05:44:28.737Z,-0.75
2023-02-23T05:47:01.157Z,-0.75
2023-02-23T05:49:33.588Z,-0.76
2023-02-23T05:52:06.231Z,-0.77
2023-02-23T05:54:38.565Z,-0.78
2023-02-23T05:57:11.102Z,-0.75
2023-02-23T05:59:43.731Z,-0.73
2023-02-23T06:02:19.168Z,-0.71
2023-02-23T06:04:51.416Z,-0.68
2023-02-23T06:07:30.076Z,-0.65
2023-02-23T06:10:02.379Z,-0.61
2023-02-23T06:12:34.725Z,-0.59
2023-02-23T06:15:08.600Z,-0.56
2023-02-23T06:17:40.827Z,-0.54
2023-02-23T06:20:16.244Z,-0.52
2023-02-23T06:22:49.029Z,-0.48
2023-02-23T06:25:21.927Z,-0.44
2023-02-23T06:27:54.888Z,-0.39
2023-02-23T06:30:27.273Z,-0.36
2023-02-23T06:32:59.710Z,-0.32
2023-02-23T06:35:33.024Z,-0.26
2023-02-23T06:38:09.264Z,-0.22
2023-02-23T06:40:44.844Z,-0.17
2023-02-23T06:43:17.322Z,-0.11
2023-02-23T06:45:50.669Z,-0.08
2023-02-23T06:48:22.954Z,-0.01
2023-02-23T06:51:00.315Z,0.06
2023-02-23T06:53:33.760Z,0.10
2023-02-23T06:56:06.658Z,0.15
2023-02-23T06:58:43.474Z,0.23
2023-02-23T07:01:19.019Z,0.29
2023-02-23T07:03:51.747Z,0.37
2023-02-23T07:06:24.970Z,0.47
2023-02-23T07:09:03.032Z,0.60
2023-02-23T07:11:36.658Z,0.82
2023-02-23T07:14:15.374Z,1.06
2023-02-23T07:16:56.163Z,1.19
2023-02-23T07:19:28.854Z,1.25
2023-02-23T07:22:01.486Z,1.32
2023-02-23T07:24:33.984Z,1.43
2023-02-23T07:27:06.451Z,1.53
2023-02-23T07:29:42.130Z,1.65
2023-02-23T07:32:14.635Z,1.80
2023-02-23T07:34:47.948Z,1.91
2023-02-23T07:37:20.428Z,2.08
2023-02-23T07:39:55.012Z,2.37
2023-02-23T07:42:27.440Z,2.65
2023-02-23T07:45:02.615Z,2.84
2023-02-23T07:47:35.488Z,2.83
2023-02-23T07:50:12.779Z,2.89
2023-02-23T07:52:45.843Z,3.16
2023-02-23T07:55:22.477Z,3.50
2023-02-23T07:57:55.239Z,3.84
2023-02-23T08:00:28.153Z,4.42
2023-02-23T08:03:01.544Z,5.00
2023-02-23T08:05:34.028Z,5.35
2023-02-23T08:08:06.790Z,5.44
2023-02-23T08:10:39.607Z,5.46
2023-02-23T08:13:12.364Z,5.40
2023-02-23T08:15:44.949Z,5.46
2023-02-23T08:18:17.820Z,5.59
2023-02-23T08:20:50.072Z,5.69
2023-02-23T08:23:22.423Z,5.74
2023-02-23T08:25:56.014Z,5.82
2023-02-23T08:28:28.859Z,6.04
2023-02-23T08:31:01.722Z,6.31
2023-02-23T08:33:34.971Z,6.51
2023-02-23T08:36:08.190Z,6.51
2023-02-23T08:38:40.931Z,6.37
2023-02-23T08:41:13.299Z,6.36
2023-02-23T08:43:45.655Z,6.30
2023-02-23T08:46:20.507Z,6.19
2023-02-23T08:48:53.143Z,6.22
2023-02-23T08:51:25.879Z,6.48
2023-02-23T08:53:58.333Z,6.95
2023-02-23T08:56:31.904Z,7.27
2023-02-23T08:59:04.194Z,7.60
2023-02-23T09:01:37.287Z,8.05
2023-02-23T09:04:10.072Z,8.40
2023-02-23T09:06:42.645Z,8.76
2023-02-23T09:09:15.000Z,9.20
2023-02-23T09:11:47.515Z,9.83
2023-02-23T09:14:22.958Z,10.40
2023-02-23T09:16:55.352Z,10.70
2023-02-23T09:19:28.478Z,11.25
2023-02-23T09:22:03.238Z,11.82
2023-02-23T09:24:35.510Z,12.05
2023-02-23T09:27:13.053Z,11.86
2023-02-23T09:29:45.334Z,11.82
2023-02-23T09:32:17.827Z,12.14
2023-02-23T09:34:52.650Z,12.42
2023-02-23T09:37:25.650Z,12.60
2023-02-23T09:39:58.228Z,12.45
2023-02-23T09:42:41.285Z,12.33
2023-02-23T09:45:37.418Z,12.48
2023-02-23T09:48:17.666Z,12.59
2023-02-23T09:50:57.262Z,12.74
2023-02-23T09:53:40.622Z,13.02
2023-02-23T09:56:19.568Z,13.11
2023-02-23T09:58:57.263Z,13.83
2023-02-23T10:02:00.736Z,14.57
2023-02-23T10:04:45.533Z,15.31
2023-02-23T10:07:27.607Z,15.83
2023-02-23T10:10:23.741Z,16.01
2023-02-23T10:13:05.746Z,16.16
2023-02-23T10:15:46.676Z,16.38
2023-02-23T10:18:46.234Z,16.16
2023-02-23T10:21:22.708Z,15.76
2023-02-23T10:24:03.161Z,15.63
2023-02-23T10:26:44.460Z,15.83
2023-02-23T10:29:28.422Z,16.44
2023-02-23T10:32:07.536Z,16.67
2023-02-23T10:34:41.059Z,16.85
2023-02-23T10:37:21.960Z,17.06
2023-02-23T10:39:55.490Z,16.95
2023-02-23T10:42:31.959Z,16.98
2023-02-23T10:45:04.478Z,16.90
2023-02-23T10:47:38.933Z,16.45
2023-02-23T10:50:15.580Z,16.12
2023-02-23T10:52:49.827Z,15.80
2023-02-23T10:55:28.748Z,15.36
2023-02-23T10:58:11.256Z,15.24
2023-02-23T11:00:53.595Z,15.03
2023-02-23T11:03:35.051Z,14.54
2023-02-23T11:06:08.903Z,14.45
2023-02-23T11:08:42.009Z,14.49
2023-02-23T11:11:28.918Z,14.55
2023-02-23T11:14:16.951Z,14.64
2023-02-23T11:16:49.551Z,14.60
2023-02-23T11:19:26.408Z,14.48
2023-02-23T11:21:58.758Z,14.14
2023-02-23T11:24:42.321Z,13.64
2023-02-23T11:27:25.327Z,13.30
2023-02-23T11:30:06.365Z,13.02
2023-02-23T11:32:45.025Z,12.49
2023-02-23T11:35:33.088Z,12.11
2023-02-23T11:38:23.690Z,11.90
2023-02-23T11:41:04.285Z,11.78
2023-02-23T11:43:37.264Z,11.74
2023-02-23T11:49:27.956Z,11.38
2023-02-23T11:52:00.633Z,11.17
2023-02-23T11:54:35.099Z,11.07
2023-02-23T11:57:07.814Z,11.17
2023-02-23T11:59:41.962Z,11.21
2023-02-23T12:02:25.119Z,11.23
2023-02-23T12:05:07.933Z,11.29
2023-02-23T12:07:47.364Z,11.32
2023-02-23T12:10:24.660Z,11.43
2023-02-23T12:13:07.476Z,11.55
2023-02-23T12:15:48.892Z,11.63
2023-02-23T12:18:39.787Z,11.59
2023-02-23T12:21:24.931Z,11.63
2023-02-23T12:24:05.553Z,11.69
2023-02-23T12:26:46.179Z,11.89
2023-02-23T12:29:21.545Z,12.06
2023-02-23T12:31:59.119Z,11.99
2023-02-23T12:34:43.985Z,11.87
2023-02-23T12:37:29.463Z,11.76
2023-02-23T12:40:12.402Z,11.63
2023-02-23T12:42:50.714Z,11.55
2023-02-23T12:45:30.269Z,11.43
2023-02-23T12:48:13.722Z,11.40
2023-02-23T12:50:53.010Z,11.43
2023-02-23T12:53:32.603Z,11.41
2023-02-23T12:56:17.741Z,11.36
2023-02-23T12:58:58.715Z,11.39
2023-02-23T13:01:35.997Z,11.40
2023-02-23T13:04:45.171Z,11.42
2023-02-23T13:07:24.091Z,11.48
2023-02-23T13:10:06.882Z,11.55
2023-02-23T13:12:49.494Z,11.56
2023-02-23T13:15:30.935Z,11.53
2023-02-23T13:18:10.602Z,11.36
2023-02-23T13:20:49.144Z,11.31
2023-02-23T13:23:28.836Z,11.39
2023-02-23T13:26:13.212Z,11.37
2023-02-23T13:28:56.667Z,11.27
2023-02-23T13:31:33.596Z,11.13
2023-02-23T13:34:10.625Z,11.03
2023-02-23T13:36:44.149Z,10.94
2023-02-23T13:39:49.735Z,10.92
2023-02-23T13:42:33.221Z,10.87
2023-02-23T13:45:28.855Z,10.75
2023-02-23T13:48:08.073Z,10.71
2023-02-23T13:50:50.646Z,10.83
2023-02-23T13:53:41.094Z,10.90
2023-02-23T13:56:19.361Z,10.92
2023-02-23T13:58:57.720Z,10.89
2023-02-23T14:01:34.603Z,10.86
2023-02-23T14:04:13.054Z,10.87
2023-02-23T14:06:56.875Z,10.84
2023-02-23T14:09:35.455Z,10.79
2023-02-23T14:12:19.512Z,10.83
2023-02-23T14:14:52.109Z,10.90
2023-02-23T14:17:50.520Z,10.91
2023-02-23T14:20:38.257Z,10.81
2023-02-23T14:23:38.100Z,10.74
2023-02-23T14:26:39.527Z,10.69
2023-02-23T14:29:29.208Z,10.70
2023-02-23T14:32:30.458Z,10.67
2023-02-23T14:35:03.908Z,10.60
2023-02-23T14:37:38.256Z,10.57
2023-02-23T14:40:19.353Z,10.56
2023-02-23T14:42:53.540Z,10.55
2023-02-23T14:45:29.013Z,10.54
2023-02-23T14:48:08.055Z,10.50
2023-02-23T14:50:41.440Z,10.45
2023-02-23T14:53:20.070Z,10.38
2023-02-23T14:55:52.338Z,10.32
2023-02-23T14:58:28.150Z,10.26
2023-02-23T15:01:00.792Z,10.21
2023-02-23T15:03:33.008Z,10.20
2023-02-23T15:06:06.577Z,10.19
2023-02-23T15:08:46.028Z,10.14
2023-02-23T15:11:21.577Z,10.08
2023-02-23T15:13:55.807Z,10.01
2023-02-23T15:16:34.494Z,9.98
2023-02-23T15:19:08.229Z,9.94
2023-02-23T15:21:41.116Z,9.89
2023-02-23T15:24:16.711Z,9.83
2023-02-23T15:26:49.802Z,9.76
2023-02-23T15:29:24.861Z,9.70
2023-02-23T15:31:58.493Z,9.65
2023-02-23T15:34:35.094Z,9.57
2023-02-23T15:37:14.207Z,9.51
2023-02-23T15:39:54.083Z,9.47
2023-02-23T15:42:33.609Z,9.42
2023-02-23T15:45:20.163Z,9.37
2023-02-23T15:47:56.432Z,9.31
2023-02-23T15:50:37.255Z,9.25
2023-02-23T15:53:19.718Z,9.19
2023-02-23T15:55:55.714Z,9.12
2023-02-23T15:58:30.815Z,9.06
2023-02-23T16:01:13.615Z,8.99
2023-02-23T16:03:57.901Z,8.90
2023-02-23T16:06:35.885Z,8.81
2023-02-23T16:09:25.273Z,8.74
2023-02-23T16:12:04.568Z,8.66
2023-02-23T16:14:44.904Z,8.59
2023-02-23T16:17:26.928Z,8.53
2023-02-23T16:20:14.801Z,8.48
2023-02-23T16:22:54.995Z,8.40
2023-02-23T16:25:31.448Z,8.31
2023-02-23T16:28:06.705Z,8.26
2023-02-23T16:30:44.281Z,8.19
2023-02-23T16:33:22.970Z,8.10
2023-02-23T16:36:07.337Z,8.06
2023-02-23T16:38:41.117Z,8.04
2023-02-23T16:41:20.509Z,8.00
2023-02-23T16:43:54.045Z,7.96
2023-02-23T16:46:29.859Z,7.89
2023-02-23T16:49:10.433Z,7.87
2023-02-23T16:51:41.664Z,7.82
2023-02-23T16:54:14.202Z,7.76
2023-02-23T16:56:47.805Z,7.70
2023-02-23T16:59:21.566Z,7.63
2023-02-23T17:01:54.293Z,7.52
2023-02-23T17:04:29.792Z,7.45
2023-02-23T17:07:02.137Z,7.41
2023-02-23T17:09:34.295Z,7.39
2023-02-23T17:12:07.214Z,7.38
2023-02-23T17:14:41.311Z,7.32
2023-02-23T17:17:23.103Z,7.28
2023-02-23T17:19:55.356Z,7.27
2023-02-23T17:22:36.613Z,7.24
2023-02-23T17:25:14.339Z,7.23
2023-02-23T17:27:46.507Z,7.25
2023-02-23T17:30:20.096Z,7.24
2023-02-23T17:32:53.023Z,7.25
2023-02-23T17:35:26.893Z,7.24
2023-02-23T17:37:59.254Z,7.25
2023-02-23T17:40:34.708Z,7.28
2023-02-23T17:43:08.699Z,7.29
2023-02-23T17:45:43.261Z,7.30
2023-02-23T17:48:15.465Z,7.31
2023-02-23T17:50:47.747Z,7.28
2023-02-23T17:53:20.128Z,7.28
2023-02-23T17:55:52.469Z,7.29
2023-02-23T17:58:25.394Z,7.31
2023-02-23T18:00:59.453Z,7.30
2023-02-23T18:03:33.680Z,7.28
2023-02-23T18:06:08.458Z,7.27
2023-02-23T18:08:42.723Z,7.28
2023-02-23T18:11:17.657Z,7.27
2023-02-23T18:13:51.454Z,7.26
2023-02-23T18:16:24.586Z,7.25
2023-02-23T18:18:58.095Z,7.23
2023-02-23T18:21:30.697Z,7.23
2023-02-23T18:24:03.282Z,7.24
2023-02-23T18:26:35.765Z,7.23
2023-02-23T18:29:10.798Z,7.25
2023-02-23T18:31:43.242Z,7.23
2023-02-23T18:34:16.604Z,7.21
2023-02-23T18:36:48.807Z,7.18
2023-02-23T18:39:21.011Z,7.16
2023-02-23T18:41:53.424Z,7.14
2023-02-23T18:44:26.947Z,7.14
2023-02-23T18:47:01.211Z,7.14
2023-02-23T18:49:33.597Z,7.13
2023-02-23T18:52:12.094Z,7.10
2023-02-23T18:54:44.396Z,7.08
2023-02-23T18:57:16.797Z,7.07
2023-02-23T18:59:49.456Z,7.06
2023-02-23T19:02:23.437Z,7.02
2023-02-23T19:05:02.923Z,7.00
2023-02-23T19:07:35.728Z,6.95
2023-02-23T19:10:12.358Z,6.92
2023-02-23T19:12:44.809Z,6.88
2023-02-23T19:15:17.659Z,6.85
2023-02-23T19:17:50.345Z,6.87
2023-02-23T19:20:22.929Z,6.84
2023-02-23T19:22:55.671Z,6.81
2023-02-23T19:25:27.964Z,6.79
2023-02-23T19:28:01.165Z,6.77
2023-02-23T19:30:38.075Z,6.76
2023-02-23T19:33:10.377Z,6.72
2023-02-23T19:35:44.568Z,6.68
2023-02-23T19:38:17.594Z,6.63
2023-02-23T19:40:51.011Z,6.60
2023-02-23T19:43:23.297Z,6.59
2023-02-23T19:45:55.649Z,6.58
2023-02-23T19:48:29.066Z,6.56
2023-02-23T19:51:01.771Z,6.56
2023-02-23T19:53:35.940Z,6.57
2023-02-23T19:56:10.200Z,6.59
2023-02-23T19:58:46.777Z,6.58
2023-02-23T20:01:21.152Z,6.57
2023-02-23T20:03:55.616Z,6.55
2023-02-23T20:06:30.742Z,6.53
2023-02-23T20:09:04.609Z,6.54
2023-02-23T20:11:37.065Z,6.56
2023-02-23T20:14:09.414Z,6.57
2023-02-23T20:16:41.680Z,6.58
2023-02-23T20:19:14.030Z,6.59
2023-02-23T20:21:46.338Z,6.61
2023-02-23T20:24:19.660Z,6.61
2023-02-23T20:26:58.198Z,6.60
2023-02-23T20:29:30.625Z,6.58
2023-02-23T20:32:04.753Z,6.57
2023-02-23T20:34:39.343Z,6.59
2023-02-23T20:37:11.646Z,6.61
2023-02-23T20:39:43.867Z,6.63
2023-02-23T20:42:16.695Z,6.63
2023-02-23T20:44:50.262Z,6.61
2023-02-23T20:47:23.087Z,6.64
